sensor_id;sensor_type;location;lat;lon;timestamp;temperature;humidity
39847;DHT22;25517;52.422;10.782;2023-04-15T00:00:35;7.60;99.90
39847;DHT22;25517;52.422;10.782;2023-04-15T00:03:01;7.60;99.90
39847;DHT22;25517;52.422;10.782;2023-04-15T00:05:29;7.60;99.90
39847;DHT22;25517;52.422;10.782;2023-04-15T00:07:54;7.60;99.90
39847;DHT22;25517;52.422;10.782;2023-04-15T00:10:20;7.60;99.90
39847;DHT22;25517;52.422;10.782;2023-04-15T00:12:45;7.50;99.90
39847;DHT22;25517;52.422;10.782;2023-04-15T00:15:11;7.50;99.90
39847;DHT22;25517;52.422;10.782;2023-04-15T00:17:37;7.50;99.90
39847;DHT22;25517;52.422;10.782;2023-04-15T00:20:04;7.50;99.90
39847;DHT22;25517;52.422;10.782;2023-04-15T00:22:31;7.50;99.90
39847;DHT22;25517;52.422;10.782;2023-04-15T00:24:56;7.50;99.90
39847;DHT22;25517;52.422;10.782;2023-04-15T00:27:22;7.50;99.90
39847;DHT22;25517;52.422;10.782;2023-04-15T00:29:47;7.50;99.90
39847;DHT22;25517;52.422;10.782;2023-04-15T00:32:13;7.50;99.90
39847;DHT22;25517;52.422;10.782;2023-04-15T00:34:39;7.50;99.90
39847;DHT22;25517;52.422;10.782;2023-04-15T00:37:05;7.50;99.90
39847;DHT22;25517;52.422;10.782;2023-04-15T00:39:30;7.50;99.90
39847;DHT22;25517;52.422;10.782;2023-04-15T00:41:56;7.50;99.90
39847;DHT22;25517;52.422;10.782;2023-04-15T00:44:22;7.50;99.90
39847;DHT22;25517;52.422;10.782;2023-04-15T00:46:50;7.50;99.90
39847;DHT22;25517;52.422;10.782;2023-04-15T00:49:16;7.50;99.90
39847;DHT22;25517;52.422;10.782;2023-04-15T00:51:42;7.50;99.90
39847;DHT22;25517;52.422;10.782;2023-04-15T00:54:09;7.50;99.90
39847;DHT22;25517;52.422;10.782;2023-04-15T00:56:35;7.40;99.90
39847;DHT22;25517;52.422;10.782;2023-04-15T00:59:03;7.40;99.90
39847;DHT22;25517;52.422;10.782;2023-04-15T01:01:29;7.40;99.90
39847;DHT22;25517;52.422;10.782;2023-04-15T01:03:56;7.40;99.90
39847;DHT22;25517;52.422;10.782;2023-04-15T01:06:25;7.40;99.90
39847;DHT22;25517;52.422;10.782;2023-04-15T01:08:52;7.40;99.90
39847;DHT22;25517;52.422;10.782;2023-04-15T01:11:18;7.40;99.90
39847;DHT22;25517;52.422;10.782;2023-04-15T01:13:44;7.40;99.90
39847;DHT22;25517;52.422;10.782;2023-04-15T01:16:11;7.40;99.90
39847;DHT22;25517;52.422;10.782;2023-04-15T01:18:38;7.40;99.90
39847;DHT22;25517;52.422;10.782;2023-04-15T01:21:04;7.40;99.90
39847;DHT22;25517;52.422;10.782;2023-04-15T01:23:31;7.40;99.90
39847;DHT22;25517;52.422;10.782;2023-04-15T01:25:57;7.30;99.90
39847;DHT22;25517;52.422;10.782;2023-04-15T01:28:23;7.40;99.90
39847;DHT22;25517;52.422;10.782;2023-04-15T01:30:50;7.40;99.90
39847;DHT22;25517;52.422;10.782;2023-04-15T01:33:15;7.40;99.90
39847;DHT22;25517;52.422;10.782;2023-04-15T01:35:41;7.40;99.90
39847;DHT22;25517;52.422;10.782;2023-04-15T01:38:09;7.40;99.90
39847;DHT22;25517;52.422;10.782;2023-04-15T01:40:35;7.40;99.90
39847;DHT22;25517;52.422;10.782;2023-04-15T01:43:01;7.30;99.90
39847;DHT22;25517;52.422;10.782;2023-04-15T01:45:28;7.30;99.90
39847;DHT22;25517;52.422;10.782;2023-04-15T01:47:54;7.30;99.90
39847;DHT22;25517;52.422;10.782;2023-04-15T01:50:20;7.40;99.90
39847;DHT22;25517;52.422;10.782;2023-04-15T01:52:46;7.30;99.90
39847;DHT22;25517;52.422;10.782;2023-04-15T01:55:13;7.30;99.90
39847;DHT22;25517;52.422;10.782;2023-04-15T01:57:38;7.30;99.90
39847;DHT22;25517;52.422;10.782;2023-04-15T02:00:05;7.30;99.90
39847;DHT22;25517;52.422;10.782;2023-04-15T02:02:32;7.30;99.90
39847;DHT22;25517;52.422;10.782;2023-04-15T02:04:58;7.40;99.90
39847;DHT22;25517;52.422;10.782;2023-04-15T02:07:23;7.40;99.90
39847;DHT22;25517;52.422;10.782;2023-04-15T02:09:49;7.30;99.90
39847;DHT22;25517;52.422;10.782;2023-04-15T02:12:14;7.30;99.90
39847;DHT22;25517;52.422;10.782;2023-04-15T02:14:40;7.30;99.90
39847;DHT22;25517;52.422;10.782;2023-04-15T02:17:05;7.30;99.90
39847;DHT22;25517;52.422;10.782;2023-04-15T02:19:35;7.30;99.90
39847;DHT22;25517;52.422;10.782;2023-04-15T02:22:01;7.30;99.90
39847;DHT22;25517;52.422;10.782;2023-04-15T02:24:27;7.30;99.90
39847;DHT22;25517;52.422;10.782;2023-04-15T02:26:53;7.20;99.90
39847;DHT22;25517;52.422;10.782;2023-04-15T02:29:18;7.30;99.90
39847;DHT22;25517;52.422;10.782;2023-04-15T02:31:44;7.30;99.90
39847;DHT22;25517;52.422;10.782;2023-04-15T02:34:10;7.30;99.90
39847;DHT22;25517;52.422;10.782;2023-04-15T02:36:36;7.30;99.90
39847;DHT22;25517;52.422;10.782;2023-04-15T02:39:02;7.30;99.90
39847;DHT22;25517;52.422;10.782;2023-04-15T02:41:28;7.30;99.90
39847;DHT22;25517;52.422;10.782;2023-04-15T02:43:54;7.30;99.90
39847;DHT22;25517;52.422;10.782;2023-04-15T02:46:20;7.30;99.90
39847;DHT22;25517;52.422;10.782;2023-04-15T02:48:47;7.30;99.90
39847;DHT22;25517;52.422;10.782;2023-04-15T02:51:17;7.30;99.90
39847;DHT22;25517;52.422;10.782;2023-04-15T02:53:47;7.30;99.90
39847;DHT22;25517;52.422;10.782;2023-04-15T02:56:13;7.30;99.90
39847;DHT22;25517;52.422;10.782;2023-04-15T02:58:40;7.30;99.90
39847;DHT22;25517;52.422;10.782;2023-04-15T03:01:06;7.30;99.90
39847;DHT22;25517;52.422;10.782;2023-04-15T03:03:33;7.40;99.90
39847;DHT22;25517;52.422;10.782;2023-04-15T03:05:59;7.40;99.90
39847;DHT22;25517;52.422;10.782;2023-04-15T03:08:24;7.30;99.90
39847;DHT22;25517;52.422;10.782;2023-04-15T03:10:50;7.40;99.90
39847;DHT22;25517;52.422;10.782;2023-04-15T03:13:17;7.30;99.90
39847;DHT22;25517;52.422;10.782;2023-04-15T03:15:45;7.40;99.90
39847;DHT22;25517;52.422;10.782;2023-04-15T03:18:11;7.30;99.90
39847;DHT22;25517;52.422;10.782;2023-04-15T03:20:36;7.20;99.90
39847;DHT22;25517;52.422;10.782;2023-04-15T03:23:02;7.20;99.90
39847;DHT22;25517;52.422;10.782;2023-04-15T03:25:27;7.20;99.90
39847;DHT22;25517;52.422;10.782;2023-04-15T03:27:53;7.20;99.90
39847;DHT22;25517;52.422;10.782;2023-04-15T03:30:18;7.20;99.90
39847;DHT22;25517;52.422;10.782;2023-04-15T03:32:44;7.30;99.90
39847;DHT22;25517;52.422;10.782;2023-04-15T03:35:10;7.30;99.90
39847;DHT22;25517;52.422;10.782;2023-04-15T03:37:36;7.30;99.90
39847;DHT22;25517;52.422;10.782;2023-04-15T03:40:01;7.20;99.90
39847;DHT22;25517;52.422;10.782;2023-04-15T03:42:27;7.20;99.90
39847;DHT22;25517;52.422;10.782;2023-04-15T03:44:52;7.20;99.90
39847;DHT22;25517;52.422;10.782;2023-04-15T03:47:18;7.20;99.90
39847;DHT22;25517;52.422;10.782;2023-04-15T03:49:43;7.20;99.90
39847;DHT22;25517;52.422;10.782;2023-04-15T03:52:09;7.20;99.90
39847;DHT22;25517;52.422;10.782;2023-04-15T03:54:34;7.20;99.90
39847;DHT22;25517;52.422;10.782;2023-04-15T03:57:00;7.20;99.90
39847;DHT22;25517;52.422;10.782;2023-04-15T03:59:26;7.20;99.90
39847;DHT22;25517;52.422;10.782;2023-04-15T04:01:51;7.20;99.90
39847;DHT22;25517;52.422;10.782;2023-04-15T04:04:17;7.10;99.90
39847;DHT22;25517;52.422;10.782;2023-04-15T04:06:42;7.20;99.90
39847;DHT22;25517;52.422;10.782;2023-04-15T04:09:08;7.10;99.90
39847;DHT22;25517;52.422;10.782;2023-04-15T04:11:33;7.10;99.90
39847;DHT22;25517;52.422;10.782;2023-04-15T04:13:59;7.20;99.90
39847;DHT22;25517;52.422;10.782;2023-04-15T04:16:25;7.20;99.90
39847;DHT22;25517;52.422;10.782;2023-04-15T04:18:50;7.10;99.90
39847;DHT22;25517;52.422;10.782;2023-04-15T04:21:16;7.10;99.90
39847;DHT22;25517;52.422;10.782;2023-04-15T04:23:42;7.10;99.90
39847;DHT22;25517;52.422;10.782;2023-04-15T04:26:07;7.20;99.90
39847;DHT22;25517;52.422;10.782;2023-04-15T04:28:33;7.10;99.90
39847;DHT22;25517;52.422;10.782;2023-04-15T04:30:59;7.20;99.90
39847;DHT22;25517;52.422;10.782;2023-04-15T04:33:25;7.10;99.90
39847;DHT22;25517;52.422;10.782;2023-04-15T04:35:50;7.10;99.90
39847;DHT22;25517;52.422;10.782;2023-04-15T04:38:16;7.20;99.90
39847;DHT22;25517;52.422;10.782;2023-04-15T04:40:41;7.20;99.90
39847;DHT22;25517;52.422;10.782;2023-04-15T04:43:07;7.10;99.90
39847;DHT22;25517;52.422;10.782;2023-04-15T04:45:33;7.10;99.90
39847;DHT22;25517;52.422;10.782;2023-04-15T04:47:59;7.10;99.90
39847;DHT22;25517;52.422;10.782;2023-04-15T04:50:24;7.10;99.90
39847;DHT22;25517;52.422;10.782;2023-04-15T04:52:50;7.10;99.90
39847;DHT22;25517;52.422;10.782;2023-04-15T04:55:16;7.10;99.90
39847;DHT22;25517;52.422;10.782;2023-04-15T04:57:41;7.10;99.90
39847;DHT22;25517;52.422;10.782;2023-04-15T05:00:07;7.10;99.90
39847;DHT22;25517;52.422;10.782;2023-04-15T05:02:33;7.10;99.90
39847;DHT22;25517;52.422;10.782;2023-04-15T05:04:59;7.10;99.90
39847;DHT22;25517;52.422;10.782;2023-04-15T05:07:24;7.10;99.90
39847;DHT22;25517;52.422;10.782;2023-04-15T05:09:50;7.10;99.90
39847;DHT22;25517;52.422;10.782;2023-04-15T05:12:15;7.10;99.90
39847;DHT22;25517;52.422;10.782;2023-04-15T05:14:42;7.20;99.90
39847;DHT22;25517;52.422;10.782;2023-04-15T05:17:08;7.10;99.90
39847;DHT22;25517;52.422;10.782;2023-04-15T05:19:33;7.20;99.90
39847;DHT22;25517;52.422;10.782;2023-04-15T05:21:59;7.20;99.90
39847;DHT22;25517;52.422;10.782;2023-04-15T05:24:25;7.20;99.90
39847;DHT22;25517;52.422;10.782;2023-04-15T05:26:51;7.20;99.90
39847;DHT22;25517;52.422;10.782;2023-04-15T05:29:16;7.20;99.90
39847;DHT22;25517;52.422;10.782;2023-04-15T05:31:42;7.20;99.90
39847;DHT22;25517;52.422;10.782;2023-04-15T05:34:08;7.20;99.90
39847;DHT22;25517;52.422;10.782;2023-04-15T05:36:34;7.20;99.90
39847;DHT22;25517;52.422;10.782;2023-04-15T05:39:00;7.30;99.90
39847;DHT22;25517;52.422;10.782;2023-04-15T05:41:26;7.30;99.90
39847;DHT22;25517;52.422;10.782;2023-04-15T05:43:51;7.30;99.90
39847;DHT22;25517;52.422;10.782;2023-04-15T05:46:17;7.30;99.90
39847;DHT22;25517;52.422;10.782;2023-04-15T05:48:42;7.30;99.90
39847;DHT22;25517;52.422;10.782;2023-04-15T05:51:08;7.30;99.90
39847;DHT22;25517;52.422;10.782;2023-04-15T05:53:34;7.40;99.90
39847;DHT22;25517;52.422;10.782;2023-04-15T05:56:00;7.40;99.90
39847;DHT22;25517;52.422;10.782;2023-04-15T05:58:25;7.40;99.90
39847;DHT22;25517;52.422;10.782;2023-04-15T06:00:51;7.40;99.90
39847;DHT22;25517;52.422;10.782;2023-04-15T06:03:16;7.40;99.90
39847;DHT22;25517;52.422;10.782;2023-04-15T06:05:42;7.40;99.90
39847;DHT22;25517;52.422;10.782;2023-04-15T06:08:09;7.40;99.90
39847;DHT22;25517;52.422;10.782;2023-04-15T06:10:35;7.40;99.90
39847;DHT22;25517;52.422;10.782;2023-04-15T06:13:04;7.50;99.90
39847;DHT22;25517;52.422;10.782;2023-04-15T06:15:30;7.50;99.90
39847;DHT22;25517;52.422;10.782;2023-04-15T06:17:56;7.50;99.90
39847;DHT22;25517;52.422;10.782;2023-04-15T06:20:22;7.60;99.90
39847;DHT22;25517;52.422;10.782;2023-04-15T06:22:48;7.60;99.90
39847;DHT22;25517;52.422;10.782;2023-04-15T06:25:13;7.60;99.90
39847;DHT22;25517;52.422;10.782;2023-04-15T06:27:39;7.60;99.90
39847;DHT22;25517;52.422;10.782;2023-04-15T06:30:05;7.60;99.90
39847;DHT22;25517;52.422;10.782;2023-04-15T06:32:31;7.70;99.90
39847;DHT22;25517;52.422;10.782;2023-04-15T06:34:57;7.70;99.90
39847;DHT22;25517;52.422;10.782;2023-04-15T06:37:23;7.70;99.90
39847;DHT22;25517;52.422;10.782;2023-04-15T06:39:48;7.70;99.90
39847;DHT22;25517;52.422;10.782;2023-04-15T06:42:14;7.70;99.90
39847;DHT22;25517;52.422;10.782;2023-04-15T06:44:39;7.70;99.90
39847;DHT22;25517;52.422;10.782;2023-04-15T06:47:05;7.80;99.90
39847;DHT22;25517;52.422;10.782;2023-04-15T06:49:30;7.80;99.90
39847;DHT22;25517;52.422;10.782;2023-04-15T06:51:56;7.80;99.90
39847;DHT22;25517;52.422;10.782;2023-04-15T06:54:22;7.80;99.90
39847;DHT22;25517;52.422;10.782;2023-04-15T06:56:47;7.80;99.90
39847;DHT22;25517;52.422;10.782;2023-04-15T06:59:13;7.90;99.90
39847;DHT22;25517;52.422;10.782;2023-04-15T07:01:42;7.90;99.90
39847;DHT22;25517;52.422;10.782;2023-04-15T07:04:08;7.90;99.90
39847;DHT22;25517;52.422;10.782;2023-04-15T07:06:33;7.90;99.90
39847;DHT22;25517;52.422;10.782;2023-04-15T07:09:00;8.00;99.90
39847;DHT22;25517;52.422;10.782;2023-04-15T07:11:26;8.00;99.90
39847;DHT22;25517;52.422;10.782;2023-04-15T07:13:51;8.00;99.90
39847;DHT22;25517;52.422;10.782;2023-04-15T07:16:17;8.00;99.90
39847;DHT22;25517;52.422;10.782;2023-04-15T07:18:42;8.10;99.90
39847;DHT22;25517;52.422;10.782;2023-04-15T07:21:08;8.10;99.90
39847;DHT22;25517;52.422;10.782;2023-04-15T07:23:34;8.10;99.90
39847;DHT22;25517;52.422;10.782;2023-04-15T07:25:59;8.10;99.90
39847;DHT22;25517;52.422;10.782;2023-04-15T07:28:25;8.10;99.90
39847;DHT22;25517;52.422;10.782;2023-04-15T07:30:51;8.20;99.90
39847;DHT22;25517;52.422;10.782;2023-04-15T07:33:17;8.20;99.90
39847;DHT22;25517;52.422;10.782;2023-04-15T07:35:42;8.20;99.90
39847;DHT22;25517;52.422;10.782;2023-04-15T07:38:08;8.20;99.90
39847;DHT22;25517;52.422;10.782;2023-04-15T07:40:33;8.30;99.90
39847;DHT22;25517;52.422;10.782;2023-04-15T07:42:59;8.30;99.90
39847;DHT22;25517;52.422;10.782;2023-04-15T07:45:24;8.20;99.90
39847;DHT22;25517;52.422;10.782;2023-04-15T07:47:50;8.30;99.90
39847;DHT22;25517;52.422;10.782;2023-04-15T07:50:16;8.30;99.90
39847;DHT22;25517;52.422;10.782;2023-04-15T07:52:42;8.30;99.90
39847;DHT22;25517;52.422;10.782;2023-04-15T07:55:08;8.40;99.90
39847;DHT22;25517;52.422;10.782;2023-04-15T07:57:34;8.40;99.90
39847;DHT22;25517;52.422;10.782;2023-04-15T08:00:01;8.40;99.90
39847;DHT22;25517;52.422;10.782;2023-04-15T08:02:28;8.50;99.90
39847;DHT22;25517;52.422;10.782;2023-04-15T08:04:53;8.50;99.90
39847;DHT22;25517;52.422;10.782;2023-04-15T08:07:19;8.50;99.90
39847;DHT22;25517;52.422;10.782;2023-04-15T08:09:45;8.60;99.90
39847;DHT22;25517;52.422;10.782;2023-04-15T08:12:11;8.60;99.90
39847;DHT22;25517;52.422;10.782;2023-04-15T08:14:38;8.60;99.90
39847;DHT22;25517;52.422;10.782;2023-04-15T08:17:03;8.70;99.90
39847;DHT22;25517;52.422;10.782;2023-04-15T08:19:30;8.70;99.90
39847;DHT22;25517;52.422;10.782;2023-04-15T08:21:55;8.70;99.90
39847;DHT22;25517;52.422;10.782;2023-04-15T08:24:21;8.80;99.90
39847;DHT22;25517;52.422;10.782;2023-04-15T08:26:47;8.80;99.90
39847;DHT22;25517;52.422;10.782;2023-04-15T08:29:12;8.80;99.90
39847;DHT22;25517;52.422;10.782;2023-04-15T08:31:38;8.80;99.90
39847;DHT22;25517;52.422;10.782;2023-04-15T08:34:03;8.80;99.90
39847;DHT22;25517;52.422;10.782;2023-04-15T08:36:29;8.80;99.90
39847;DHT22;25517;52.422;10.782;2023-04-15T08:38:56;8.80;99.90
39847;DHT22;25517;52.422;10.782;2023-04-15T08:41:24;8.80;99.90
39847;DHT22;25517;52.422;10.782;2023-04-15T08:44:04;8.80;99.90
39847;DHT22;25517;52.422;10.782;2023-04-15T08:46:33;8.80;99.90
39847;DHT22;25517;52.422;10.782;2023-04-15T08:49:04;8.80;99.90
39847;DHT22;25517;52.422;10.782;2023-04-15T08:51:33;8.80;99.90
39847;DHT22;25517;52.422;10.782;2023-04-15T08:53:59;8.90;99.90
39847;DHT22;25517;52.422;10.782;2023-04-15T08:56:27;8.80;99.90
39847;DHT22;25517;52.422;10.782;2023-04-15T08:58:53;8.80;99.90
39847;DHT22;25517;52.422;10.782;2023-04-15T09:01:19;8.80;99.90
39847;DHT22;25517;52.422;10.782;2023-04-15T09:03:45;8.80;99.90
39847;DHT22;25517;52.422;10.782;2023-04-15T09:06:13;8.80;99.90
39847;DHT22;25517;52.422;10.782;2023-04-15T09:08:40;8.90;99.90
39847;DHT22;25517;52.422;10.782;2023-04-15T09:11:05;8.90;99.90
39847;DHT22;25517;52.422;10.782;2023-04-15T09:13:31;8.90;99.90
39847;DHT22;25517;52.422;10.782;2023-04-15T09:15:57;8.90;99.90
39847;DHT22;25517;52.422;10.782;2023-04-15T09:18:37;8.90;99.90
39847;DHT22;25517;52.422;10.782;2023-04-15T09:21:10;8.80;99.90
39847;DHT22;25517;52.422;10.782;2023-04-15T09:23:37;8.90;99.90
39847;DHT22;25517;52.422;10.782;2023-04-15T09:26:04;8.90;99.90
39847;DHT22;25517;52.422;10.782;2023-04-15T09:28:31;8.90;99.90
39847;DHT22;25517;52.422;10.782;2023-04-15T09:30:57;8.90;99.90
39847;DHT22;25517;52.422;10.782;2023-04-15T09:33:24;9.00;99.90
39847;DHT22;25517;52.422;10.782;2023-04-15T09:36:01;9.10;99.90
39847;DHT22;25517;52.422;10.782;2023-04-15T09:38:27;9.10;99.90
39847;DHT22;25517;52.422;10.782;2023-04-15T09:40:53;9.10;99.90
39847;DHT22;25517;52.422;10.782;2023-04-15T09:43:19;9.20;99.90
39847;DHT22;25517;52.422;10.782;2023-04-15T09:45:50;9.20;99.90
39847;DHT22;25517;52.422;10.782;2023-04-15T09:48:20;9.10;99.90
39847;DHT22;25517;52.422;10.782;2023-04-15T09:50:49;9.10;99.90
39847;DHT22;25517;52.422;10.782;2023-04-15T09:53:19;9.20;99.90
39847;DHT22;25517;52.422;10.782;2023-04-15T09:55:49;9.30;99.90
39847;DHT22;25517;52.422;10.782;2023-04-15T09:58:25;9.30;99.90
39847;DHT22;25517;52.422;10.782;2023-04-15T10:00:52;9.30;99.90
39847;DHT22;25517;52.422;10.782;2023-04-15T10:05:45;9.30;99.90
39847;DHT22;25517;52.422;10.782;2023-04-15T10:08:12;9.40;99.90
39847;DHT22;25517;52.422;10.782;2023-04-15T10:10:38;9.40;99.90
39847;DHT22;25517;52.422;10.782;2023-04-15T10:13:05;9.40;99.90
39847;DHT22;25517;52.422;10.782;2023-04-15T10:15:31;9.40;99.90
39847;DHT22;25517;52.422;10.782;2023-04-15T10:17:59;9.30;99.90
39847;DHT22;25517;52.422;10.782;2023-04-15T10:20:25;9.40;99.90
39847;DHT22;25517;52.422;10.782;2023-04-15T10:22:52;9.40;99.90
39847;DHT22;25517;52.422;10.782;2023-04-15T10:25:18;9.50;99.90
39847;DHT22;25517;52.422;10.782;2023-04-15T10:27:44;9.60;99.90
39847;DHT22;25517;52.422;10.782;2023-04-15T10:30:12;9.60;99.90
39847;DHT22;25517;52.422;10.782;2023-04-15T10:32:39;9.60;99.90
39847;DHT22;25517;52.422;10.782;2023-04-15T10:35:06;9.70;99.90
39847;DHT22;25517;52.422;10.782;2023-04-15T10:37:35;9.70;99.90
39847;DHT22;25517;52.422;10.782;2023-04-15T10:42:52;9.70;99.90
39847;DHT22;25517;52.422;10.782;2023-04-15T10:45:18;9.60;99.90
39847;DHT22;25517;52.422;10.782;2023-04-15T10:47:44;9.60;99.90
39847;DHT22;25517;52.422;10.782;2023-04-15T10:50:10;9.60;99.90
39847;DHT22;25517;52.422;10.782;2023-04-15T10:52:39;9.60;99.90
39847;DHT22;25517;52.422;10.782;2023-04-15T10:57:37;9.60;99.90
39847;DHT22;25517;52.422;10.782;2023-04-15T11:00:13;9.60;99.90
39847;DHT22;25517;52.422;10.782;2023-04-15T11:02:56;9.60;99.90
39847;DHT22;25517;52.422;10.782;2023-04-15T11:05:48;9.60;99.90
39847;DHT22;25517;52.422;10.782;2023-04-15T11:08:14;9.60;99.90
39847;DHT22;25517;52.422;10.782;2023-04-15T11:13:21;9.70;99.90
39847;DHT22;25517;52.422;10.782;2023-04-15T11:15:48;9.70;99.90
39847;DHT22;25517;52.422;10.782;2023-04-15T11:18:21;9.70;99.90
39847;DHT22;25517;52.422;10.782;2023-04-15T11:20:48;9.70;99.90
39847;DHT22;25517;52.422;10.782;2023-04-15T11:23:18;9.70;99.90
39847;DHT22;25517;52.422;10.782;2023-04-15T11:25:44;9.70;99.90
39847;DHT22;25517;52.422;10.782;2023-04-15T11:28:11;9.80;99.90
39847;DHT22;25517;52.422;10.782;2023-04-15T11:30:37;9.80;99.90
39847;DHT22;25517;52.422;10.782;2023-04-15T11:33:07;9.90;99.90
39847;DHT22;25517;52.422;10.782;2023-04-15T11:35:33;9.80;99.90
39847;DHT22;25517;52.422;10.782;2023-04-15T11:38:04;9.90;99.90
39847;DHT22;25517;52.422;10.782;2023-04-15T11:40:31;9.90;99.90
39847;DHT22;25517;52.422;10.782;2023-04-15T11:45:54;10.00;99.90
39847;DHT22;25517;52.422;10.782;2023-04-15T11:50:59;10.10;99.90
39847;DHT22;25517;52.422;10.782;2023-04-15T11:53:36;10.10;99.90
39847;DHT22;25517;52.422;10.782;2023-04-15T11:56:03;10.20;99.90
39847;DHT22;25517;52.422;10.782;2023-04-15T11:58:29;10.30;99.90
39847;DHT22;25517;52.422;10.782;2023-04-15T12:00:57;10.40;99.90
39847;DHT22;25517;52.422;10.782;2023-04-15T12:03:30;10.40;99.90
39847;DHT22;25517;52.422;10.782;2023-04-15T12:13:57;10.50;99.90
39847;DHT22;25517;52.422;10.782;2023-04-15T12:16:23;10.60;99.90
39847;DHT22;25517;52.422;10.782;2023-04-15T12:18:54;10.60;99.90
39847;DHT22;25517;52.422;10.782;2023-04-15T12:21:24;10.70;99.90
39847;DHT22;25517;52.422;10.782;2023-04-15T12:23:53;10.80;99.90
39847;DHT22;25517;52.422;10.782;2023-04-15T12:26:28;10.80;99.90
39847;DHT22;25517;52.422;10.782;2023-04-15T12:29:02;10.80;99.90
39847;DHT22;25517;52.422;10.782;2023-04-15T12:31:28;10.90;99.90
39847;DHT22;25517;52.422;10.782;2023-04-15T12:33:55;10.80;99.90
39847;DHT22;25517;52.422;10.782;2023-04-15T12:36:20;10.90;99.90
39847;DHT22;25517;52.422;10.782;2023-04-15T12:38:46;11.00;99.90
39847;DHT22;25517;52.422;10.782;2023-04-15T12:41:11;11.10;99.90
39847;DHT22;25517;52.422;10.782;2023-04-15T12:43:37;11.10;99.90
39847;DHT22;25517;52.422;10.782;2023-04-15T12:46:02;11.10;99.90
39847;DHT22;25517;52.422;10.782;2023-04-15T12:48:29;11.10;99.90
39847;DHT22;25517;52.422;10.782;2023-04-15T12:50:55;11.10;99.90
39847;DHT22;25517;52.422;10.782;2023-04-15T12:53:20;11.10;99.90
39847;DHT22;25517;52.422;10.782;2023-04-15T12:55:46;11.10;99.90
39847;DHT22;25517;52.422;10.782;2023-04-15T12:58:11;11.10;99.90
39847;DHT22;25517;52.422;10.782;2023-04-15T13:00:37;11.10;99.90
39847;DHT22;25517;52.422;10.782;2023-04-15T13:03:03;11.20;99.90
39847;DHT22;25517;52.422;10.782;2023-04-15T13:05:29;11.20;99.90
39847;DHT22;25517;52.422;10.782;2023-04-15T13:07:54;11.20;99.90
39847;DHT22;25517;52.422;10.782;2023-04-15T13:10:20;11.20;99.90
39847;DHT22;25517;52.422;10.782;2023-04-15T13:12:48;11.30;99.90
39847;DHT22;25517;52.422;10.782;2023-04-15T13:15:14;11.50;99.90
39847;DHT22;25517;52.422;10.782;2023-04-15T13:17:43;11.60;99.90
39847;DHT22;25517;52.422;10.782;2023-04-15T13:20:09;11.60;99.90
39847;DHT22;25517;52.422;10.782;2023-04-15T13:22:35;11.70;99.90
39847;DHT22;25517;52.422;10.782;2023-04-15T13:25:00;11.70;99.90
39847;DHT22;25517;52.422;10.782;2023-04-15T13:27:26;11.70;99.90
39847;DHT22;25517;52.422;10.782;2023-04-15T13:29:53;11.60;99.90
39847;DHT22;25517;52.422;10.782;2023-04-15T13:32:19;11.60;99.90
39847;DHT22;25517;52.422;10.782;2023-04-15T13:34:44;11.60;99.90
39847;DHT22;25517;52.422;10.782;2023-04-15T13:37:10;11.50;99.90
39847;DHT22;25517;52.422;10.782;2023-04-15T13:39:35;11.40;99.90
39847;DHT22;25517;52.422;10.782;2023-04-15T13:42:01;11.40;99.90
39847;DHT22;25517;52.422;10.782;2023-04-15T13:44:27;11.30;99.90
39847;DHT22;25517;52.422;10.782;2023-04-15T13:46:52;11.20;99.90
39847;DHT22;25517;52.422;10.782;2023-04-15T13:49:18;11.20;99.90
39847;DHT22;25517;52.422;10.782;2023-04-15T13:51:43;11.20;99.90
39847;DHT22;25517;52.422;10.782;2023-04-15T13:54:09;11.10;99.90
39847;DHT22;25517;52.422;10.782;2023-04-15T13:56:35;11.10;99.90
39847;DHT22;25517;52.422;10.782;2023-04-15T13:59:01;11.10;99.90
39847;DHT22;25517;52.422;10.782;2023-04-15T14:01:27;11.00;99.90
39847;DHT22;25517;52.422;10.782;2023-04-15T14:03:53;11.00;99.90
39847;DHT22;25517;52.422;10.782;2023-04-15T14:06:19;11.00;99.90
39847;DHT22;25517;52.422;10.782;2023-04-15T14:08:44;11.00;99.90
39847;DHT22;25517;52.422;10.782;2023-04-15T14:11:11;11.10;99.90
39847;DHT22;25517;52.422;10.782;2023-04-15T14:13:37;11.10;99.90
39847;DHT22;25517;52.422;10.782;2023-04-15T14:16:02;11.10;99.90
39847;DHT22;25517;52.422;10.782;2023-04-15T14:18:28;11.10;99.90
39847;DHT22;25517;52.422;10.782;2023-04-15T14:20:55;11.20;99.90
39847;DHT22;25517;52.422;10.782;2023-04-15T14:23:21;11.20;99.90
39847;DHT22;25517;52.422;10.782;2023-04-15T14:25:46;11.30;99.90
39847;DHT22;25517;52.422;10.782;2023-04-15T14:28:12;11.30;99.90
39847;DHT22;25517;52.422;10.782;2023-04-15T14:30:38;11.30;99.90
39847;DHT22;25517;52.422;10.782;2023-04-15T14:33:03;11.40;99.90
39847;DHT22;25517;52.422;10.782;2023-04-15T14:35:29;11.30;99.90
39847;DHT22;25517;52.422;10.782;2023-04-15T14:37:55;11.40;99.90
39847;DHT22;25517;52.422;10.782;2023-04-15T14:40:21;11.40;99.90
39847;DHT22;25517;52.422;10.782;2023-04-15T14:42:47;11.50;99.90
39847;DHT22;25517;52.422;10.782;2023-04-15T14:45:12;11.40;99.90
39847;DHT22;25517;52.422;10.782;2023-04-15T14:47:38;11.50;99.90
39847;DHT22;25517;52.422;10.782;2023-04-15T14:50:04;11.50;99.90
39847;DHT22;25517;52.422;10.782;2023-04-15T14:52:30;11.50;99.90
39847;DHT22;25517;52.422;10.782;2023-04-15T14:55:06;11.50;99.90
39847;DHT22;25517;52.422;10.782;2023-04-15T14:57:32;11.60;99.90
39847;DHT22;25517;52.422;10.782;2023-04-15T14:59:58;11.60;99.90
39847;DHT22;25517;52.422;10.782;2023-04-15T15:02:24;11.60;99.90
39847;DHT22;25517;52.422;10.782;2023-04-15T15:04:50;11.60;99.90
39847;DHT22;25517;52.422;10.782;2023-04-15T15:07:15;11.60;99.90
39847;DHT22;25517;52.422;10.782;2023-04-15T15:09:41;11.60;99.90
39847;DHT22;25517;52.422;10.782;2023-04-15T15:12:06;11.60;99.90
39847;DHT22;25517;52.422;10.782;2023-04-15T15:14:32;11.60;99.90
39847;DHT22;25517;52.422;10.782;2023-04-15T15:16:58;11.60;99.90
39847;DHT22;25517;52.422;10.782;2023-04-15T15:19:23;11.70;99.90
39847;DHT22;25517;52.422;10.782;2023-04-15T15:21:49;11.70;99.90
39847;DHT22;25517;52.422;10.782;2023-04-15T15:24:15;11.60;99.90
39847;DHT22;25517;52.422;10.782;2023-04-15T15:26:40;11.60;99.90
39847;DHT22;25517;52.422;10.782;2023-04-15T15:29:06;11.70;99.90
39847;DHT22;25517;52.422;10.782;2023-04-15T15:31:33;11.60;99.90
39847;DHT22;25517;52.422;10.782;2023-04-15T15:33:59;11.60;99.90
39847;DHT22;25517;52.422;10.782;2023-04-15T15:36:25;11.70;99.90
39847;DHT22;25517;52.422;10.782;2023-04-15T15:38:51;11.70;99.90
39847;DHT22;25517;52.422;10.782;2023-04-15T15:41:17;11.70;99.90
39847;DHT22;25517;52.422;10.782;2023-04-15T15:43:42;11.60;99.90
39847;DHT22;25517;52.422;10.782;2023-04-15T15:46:08;11.70;99.90